Time;durP1;ratioP1;P1;durP2;ratioP2;P2;SDS_P1;SDS_P2;PMS_P1;PMS_P2;Temp;Humidity;BMP_temperature;BMP_pressure;BME280_temperature;BME280_humidity;BME280_pressure;Samples;Min_cycle;Max_cycle;Signal;HPM_P1;HPM_P2
2021/08/24 00:00:19;;;;;;;20.67;8.32;;;15.90;82.30;;;;;;5030929;28;20046;-92
2021/08/24 00:02:46;;;;;;;16.95;7.93;;;15.90;82.30;;;;;;5030662;28;20042;-91
2021/08/24 00:05:22;;;;;;;16.90;8.80;;;15.90;82.30;;;;;;5033505;28;20504;-90
2021/08/24 00:07:49;;;;;;;15.40;8.55;;;15.90;82.30;;;;;;5050444;28;20050;-91
2021/08/24 00:10:16;;;;;;;16.15;8.63;;;15.90;82.40;;;;;;5028368;28;20085;-89
2021/08/24 00:12:43;;;;;;;15.30;8.18;;;15.90;82.40;;;;;;5030316;28;20091;-91
2021/08/24 00:15:11;;;;;;;20.83;8.43;;;15.90;82.50;;;;;;5062629;28;20061;-89
2021/08/24 00:17:39;;;;;;;14.70;7.85;;;15.90;82.40;;;;;;5014134;28;20041;-91
2021/08/24 00:20:06;;;;;;;20.50;8.82;;;15.90;82.40;;;;;;5033571;28;20049;-91
2021/08/24 00:22:36;;;;;;;16.48;8.45;;;15.90;82.40;;;;;;5045496;28;20112;-90
2021/08/24 00:25:06;;;;;;;16.65;7.00;;;15.80;82.40;;;;;;5026669;28;20053;-89
2021/08/24 00:27:33;;;;;;;17.98;8.25;;;15.80;82.50;;;;;;5031627;28;20107;-89
2021/08/24 00:29:59;;;;;;;19.27;9.63;;;15.80;82.50;;;;;;5031445;28;20824;-89
2021/08/24 00:32:28;;;;;;;20.05;8.85;;;15.80;82.50;;;;;;5030350;28;20049;-90
2021/08/24 00:34:55;;;;;;;23.75;8.80;;;15.80;82.60;;;;;;5033715;28;20050;-91
2021/08/24 00:37:23;;;;;;;19.45;9.85;;;15.80;82.60;;;;;;5031218;28;20057;-89
2021/08/24 00:39:51;;;;;;;16.42;7.85;;;15.80;82.60;;;;;;5030037;28;20049;-91
2021/08/24 00:42:19;;;;;;;19.02;8.80;;;15.80;82.60;;;;;;5031070;28;20076;-91
2021/08/24 00:44:48;;;;;;;16.83;8.63;;;15.80;82.60;;;;;;5031462;28;20042;-92
2021/08/24 00:47:16;;;;;;;13.65;7.18;;;15.70;82.60;;;;;;5032657;28;20046;-90
2021/08/24 00:49:44;;;;;;;17.58;8.35;;;15.80;82.50;;;;;;5031938;28;20455;-91
2021/08/24 00:52:19;;;;;;;16.00;8.15;;;15.80;82.50;;;;;;5030689;28;20049;-92
2021/08/24 00:54:46;;;;;;;17.77;8.77;;;15.70;82.50;;;;;;5030947;28;20057;-88
2021/08/24 00:57:24;;;;;;;18.10;8.25;;;15.70;82.40;;;;;;5058448;28;20049;-89
2021/08/24 00:59:55;;;;;;;19.10;8.88;;;15.70;82.40;;;;;;5029879;28;20041;-89
2021/08/24 01:02:25;;;;;;;15.68;7.85;;;15.70;82.30;;;;;;5030805;28;20140;-89
2021/08/24 01:04:54;;;;;;;18.10;9.80;;;15.60;82.30;;;;;;5032164;28;20052;-91
2021/08/24 01:07:34;;;;;;;14.90;8.55;;;15.60;82.40;;;;;;5029448;28;20099;-88
2021/08/24 01:10:11;;;;;;;11.68;7.03;;;15.60;82.40;;;;;;5030283;28;20046;-90
2021/08/24 01:13:00;;;;;;;16.90;8.80;;;15.50;82.50;;;;;;5030696;28;20041;-88
2021/08/24 01:15:44;;;;;;;16.45;7.88;;;15.50;82.50;;;;;;5030589;28;20485;-89
2021/08/24 01:18:16;;;;;;;14.45;7.22;;;15.60;82.50;;;;;;5029512;28;20049;-90
2021/08/24 01:21:04;;;;;;;19.63;8.18;;;15.50;82.40;;;;;;5030596;28;20048;-89
2021/08/24 01:23:54;;;;;;;13.05;8.52;;;15.50;82.30;;;;;;5030568;28;20038;-89
2021/08/24 01:26:31;;;;;;;20.38;8.88;;;15.50;82.30;;;;;;5029013;28;20092;-89
2021/08/24 01:29:10;;;;;;;17.90;9.43;;;15.50;82.40;;;;;;5031951;28;20042;-90
2021/08/24 01:31:57;;;;;;;15.15;9.05;;;15.50;82.50;;;;;;5029742;28;20049;-90
2021/08/24 01:34:51;;;;;;;18.55;8.90;;;15.50;82.50;;;;;;5030495;28;20568;-90
2021/08/24 01:37:43;;;;;;;21.60;10.10;;;15.50;82.70;;;;;;5057669;28;20142;-90
2021/08/24 01:40:35;;;;;;;18.73;8.68;;;15.40;82.80;;;;;;5027235;28;20041;-91
2021/08/24 01:43:06;;;;;;;18.02;10.48;;;15.40;82.80;;;;;;5029573;28;20041;-91
2021/08/24 01:45:44;;;;;;;23.95;10.68;;;15.50;82.90;;;;;;5030123;28;20515;-90
2021/08/24 01:48:28;;;;;;;20.48;9.68;;;15.40;82.90;;;;;;5030283;28;20096;-89
2021/08/24 01:51:01;;;;;;;16.42;8.57;;;15.40;82.90;;;;;;5062022;28;20095;-90
2021/08/24 01:53:48;;;;;;;16.73;8.95;;;15.40;82.90;;;;;;5029956;28;20116;-90
2021/08/24 01:56:19;;;;;;;13.32;8.38;;;15.40;82.90;;;;;;5027359;28;20057;-90
2021/08/24 01:58:57;;;;;;;18.65;9.43;;;15.40;82.90;;;;;;5048827;28;20050;-91
2021/08/24 02:01:34;;;;;;;16.92;10.85;;;15.40;82.80;;;;;;5030300;28;20127;-91
2021/08/24 02:04:07;;;;;;;19.23;9.55;;;15.40;82.80;;;;;;5032794;28;20041;-91
2021/08/24 02:06:38;;;;;;;19.30;10.18;;;15.40;82.80;;;;;;5034026;28;20049;-90
2021/08/24 02:09:11;;;;;;;14.82;9.32;;;15.40;82.80;;;;;;5032484;28;20045;-89
2021/08/24 02:11:41;;;;;;;19.25;10.13;;;15.40;82.80;;;;;;5018538;28;20100;-89
2021/08/24 02:14:13;;;;;;;18.27;8.95;;;15.40;82.80;;;;;;5032363;28;20057;-89
2021/08/24 02:16:44;;;;;;;20.67;10.20;;;15.40;82.80;;;;;;5032509;28;20465;-89
2021/08/24 02:19:18;;;;;;;16.52;9.02;;;15.40;82.80;;;;;;5032578;28;20103;-90
2021/08/24 02:21:52;;;;;;;17.50;8.57;;;15.30;82.80;;;;;;5032487;28;20068;-90
2021/08/24 02:24:23;;;;;;;18.95;9.85;;;15.40;82.70;;;;;;5032448;28;20045;-89
2021/08/24 02:26:51;;;;;;;19.48;9.55;;;15.40;82.80;;;;;;5033718;28;20049;-90
2021/08/24 02:29:18;;;;;;;16.00;9.68;;;15.30;82.80;;;;;;5034274;28;20087;-90
2021/08/24 02:31:56;;;;;;;19.42;9.90;;;15.30;82.70;;;;;;5035210;28;20046;-90
2021/08/24 02:34:38;;;;;;;16.92;9.52;;;15.30;82.70;;;;;;5061005;28;20050;-90
2021/08/24 02:37:08;;;;;;;15.27;9.38;;;15.30;82.70;;;;;;5033127;28;20111;-89
2021/08/24 02:39:47;;;;;;;16.20;9.55;;;15.30;82.60;;;;;;5032190;28;20053;-89
2021/08/24 02:42:22;;;;;;;16.00;9.85;;;15.30;82.50;;;;;;5031956;28;20076;-89
2021/08/24 02:44:55;;;;;;;21.48;9.43;;;15.30;82.50;;;;;;5033252;28;20041;-89
2021/08/24 02:47:23;;;;;;;13.00;7.83;;;15.30;82.40;;;;;;5034177;28;20049;-89
2021/08/24 02:49:52;;;;;;;13.10;9.43;;;15.20;82.30;;;;;;5033203;28;20049;-90
2021/08/24 02:52:20;;;;;;;13.75;8.60;;;15.30;82.30;;;;;;5032747;28;20136;-89
2021/08/24 02:54:50;;;;;;;14.60;8.93;;;15.20;82.20;;;;;;5033235;28;20062;-89
2021/08/24 02:57:17;;;;;;;17.15;8.52;;;15.20;82.20;;;;;;5032848;28;20065;-89
2021/08/24 02:59:44;;;;;;;10.40;7.28;;;15.20;82.10;;;;;;5031680;28;20045;-90
2021/08/24 03:02:13;;;;;;;17.88;9.38;;;15.20;82.00;;;;;;5033019;28;20057;-88
2021/08/24 03:04:41;;;;;;;23.48;10.38;;;15.20;82.00;;;;;;5033776;28;20068;-89
2021/08/24 03:07:15;;;;;;;15.52;7.43;;;15.20;81.90;;;;;;5031314;28;20049;-89
2021/08/24 03:09:45;;;;;;;13.55;7.43;;;15.20;81.90;;;;;;5032979;28;20071;-89
2021/08/24 03:12:33;;;;;;;11.25;7.32;;;15.10;81.90;;;;;;5059782;28;20474;-88
2021/08/24 03:15:24;;;;;;;14.57;8.70;;;15.10;81.80;;;;;;5031683;28;20054;-88
2021/08/24 03:17:59;;;;;;;13.82;8.48;;;15.10;81.70;;;;;;5019183;28;20077;-89
2021/08/24 03:20:31;;;;;;;19.42;8.38;;;15.00;81.70;;;;;;5032199;28;20491;-89
2021/08/24 03:22:59;;;;;;;17.83;8.85;;;15.00;81.60;;;;;;5034693;28;20062;-89
2021/08/24 03:25:27;;;;;;;13.20;8.25;;;15.00;81.60;;;;;;5032407;28;20056;-90
2021/08/24 03:27:54;;;;;;;13.07;7.88;;;15.00;81.60;;;;;;5030997;28;20049;-88
2021/08/24 03:30:23;;;;;;;11.75;8.18;;;14.90;81.60;;;;;;5032362;28;20054;-89
2021/08/24 03:32:51;;;;;;;17.48;8.70;;;14.90;81.60;;;;;;5030193;28;20045;-88
2021/08/24 03:35:20;;;;;;;11.50;7.55;;;14.90;81.60;;;;;;5031927;28;20046;-88
2021/08/24 03:37:47;;;;;;;12.20;8.63;;;14.90;81.60;;;;;;5034268;28;20056;-89
2021/08/24 03:40:15;;;;;;;14.45;7.90;;;14.90;81.60;;;;;;5032338;28;20077;-89
2021/08/24 03:42:42;;;;;;;11.05;7.70;;;14.90;81.60;;;;;;5031974;28;20041;-89
2021/08/24 03:45:09;;;;;;;12.32;8.23;;;14.90;81.50;;;;;;5029537;28;20041;-90
2021/08/24 03:47:36;;;;;;;14.40;9.10;;;14.90;81.50;;;;;;5014115;28;20049;-88
2021/08/24 03:50:05;;;;;;;14.23;10.05;;;14.80;81.50;;;;;;5033750;28;20049;-89
2021/08/24 03:52:32;;;;;;;19.27;10.18;;;14.80;81.50;;;;;;5033603;28;20049;-89
2021/08/24 03:54:59;;;;;;;13.98;8.85;;;14.80;81.50;;;;;;5030915;28;20576;-90
2021/08/24 03:57:26;;;;;;;15.02;8.98;;;14.80;81.50;;;;;;5026159;28;20054;-90
2021/08/24 03:59:54;;;;;;;13.20;7.78;;;14.70;81.50;;;;;;5031297;28;20072;-88
2021/08/24 04:02:22;;;;;;;18.92;8.77;;;14.80;81.60;;;;;;5032741;28;20088;-89
2021/08/24 04:04:49;;;;;;;17.50;8.50;;;14.70;81.50;;;;;;5013018;28;20500;-89
2021/08/24 04:07:16;;;;;;;14.23;9.57;;;14.70;81.50;;;;;;5027321;28;20495;-89
2021/08/24 04:09:43;;;;;;;14.80;8.38;;;14.70;81.50;;;;;;5057675;28;20084;-89
2021/08/24 04:12:10;;;;;;;14.18;9.77;;;14.70;81.50;;;;;;5029931;28;20119;-88
2021/08/24 04:14:37;;;;;;;14.35;7.95;;;14.60;81.50;;;;;;5063324;28;20054;-89
2021/08/24 04:17:04;;;;;;;14.40;9.20;;;14.60;81.60;;;;;;5013289;28;20488;-90
2021/08/24 04:19:31;;;;;;;12.73;8.75;;;14.60;81.60;;;;;;5014145;28;20057;-90
2021/08/24 04:21:58;;;;;;;12.70;9.23;;;14.60;81.60;;;;;;5045887;28;20512;-90
2021/08/24 04:24:25;;;;;;;14.27;8.98;;;14.60;81.60;;;;;;5012427;28;20054;-88
2021/08/24 04:26:52;;;;;;;12.80;8.50;;;14.60;81.50;;;;;;5045957;28;20054;-90
2021/08/24 04:29:19;;;;;;;12.27;8.48;;;14.50;81.40;;;;;;5013440;28;20141;-92
2021/08/24 04:31:46;;;;;;;14.68;9.23;;;14.60;81.30;;;;;;5046550;28;20104;-91
2021/08/24 04:34:12;;;;;;;15.63;8.93;;;14.50;81.20;;;;;;5080101;28;20049;-92
2021/08/24 04:36:39;;;;;;;11.63;8.75;;;14.50;81.20;;;;;;5042444;28;20065;-92
2021/08/24 04:39:06;;;;;;;16.10;9.60;;;14.50;81.20;;;;;;5034159;28;20120;-92
2021/08/24 04:41:33;;;;;;;11.50;8.32;;;14.50;81.10;;;;;;5032876;28;20465;-92
2021/08/24 04:44:01;;;;;;;13.95;10.30;;;14.40;81.10;;;;;;5066477;28;20099;-90
2021/08/24 04:46:27;;;;;;;12.65;8.63;;;14.40;81.20;;;;;;5033098;28;20192;-91
2021/08/24 04:48:54;;;;;;;17.50;10.48;;;14.40;81.10;;;;;;5033505;28;20110;-90
2021/08/24 04:51:22;;;;;;;13.80;9.68;;;14.40;81.20;;;;;;5034089;28;20116;-92
2021/08/24 04:53:49;;;;;;;11.98;8.60;;;14.40;81.20;;;;;;5066031;28;20049;-91
2021/08/24 04:56:16;;;;;;;11.35;8.90;;;14.40;81.20;;;;;;5065900;28;20061;-90
2021/08/24 04:58:43;;;;;;;16.15;9.85;;;14.40;81.20;;;;;;5048765;28;20057;-92
2021/08/24 05:01:10;;;;;;;10.82;8.25;;;14.30;81.20;;;;;;5028834;28;20045;-90
2021/08/24 05:03:38;;;;;;;15.48;10.18;;;14.30;81.20;;;;;;5032415;28;20091;-90
2021/08/24 05:06:05;;;;;;;12.05;8.07;;;14.30;81.20;;;;;;5032986;28;20103;-91
2021/08/24 05:08:35;;;;;;;16.55;9.40;;;14.30;81.20;;;;;;5032604;28;20103;-91
2021/08/24 05:11:03;;;;;;;15.15;10.07;;;14.20;81.20;;;;;;4997112;28;20057;-92
2021/08/24 05:13:30;;;;;;;14.65;10.45;;;14.20;81.20;;;;;;5013233;28;20423;-92
2021/08/24 05:16:01;;;;;;;14.50;8.82;;;14.20;81.30;;;;;;5027866;28;20049;-92
2021/08/24 05:18:41;;;;;;;17.58;10.20;;;14.20;81.30;;;;;;5056775;28;20503;-90
2021/08/24 05:21:14;;;;;;;12.73;8.73;;;14.20;81.30;;;;;;5032135;28;20060;-90
2021/08/24 05:23:47;;;;;;;14.25;8.68;;;14.20;81.40;;;;;;5032500;28;20426;-90
2021/08/24 05:26:24;;;;;;;20.00;9.60;;;14.20;81.40;;;;;;5062039;28;20099;-92
2021/08/24 05:29:02;;;;;;;13.73;8.07;;;14.20;81.40;;;;;;5062188;28;20136;-91
2021/08/24 05:31:34;;;;;;;13.55;9.50;;;14.10;81.40;;;;;;5065176;28;20065;-91
2021/08/24 05:34:42;;;;;;;10.40;8.32;;;14.10;81.40;;;;;;5034047;28;20077;-92
2021/08/24 05:37:10;;;;;;;11.98;8.60;;;14.10;81.50;;;;;;5031189;28;20053;-91
2021/08/24 05:40:22;;;;;;;14.88;10.27;;;14.10;81.50;;;;;;5033514;28;20581;-90
2021/08/24 05:43:07;;;;;;;14.35;10.43;;;14.10;81.60;;;;;;5033460;28;20061;-91
2021/08/24 05:46:06;;;;;;;14.40;9.98;;;14.20;81.80;;;;;;5033566;28;20073;-90
2021/08/24 05:48:40;;;;;;;15.02;11.48;;;14.20;81.90;;;;;;5065402;28;20057;-92
2021/08/24 05:51:24;;;;;;;18.25;11.98;;;14.20;82.20;;;;;;5063468;28;20041;-91
2021/08/24 05:54:08;;;;;;;19.48;12.25;;;14.20;82.30;;;;;;5033048;28;20125;-91
2021/08/24 05:56:42;;;;;;;14.77;11.70;;;14.30;82.40;;;;;;5033555;28;20077;-93
2021/08/24 05:59:09;;;;;;;12.48;9.93;;;14.30;82.60;;;;;;5032569;28;20053;-91
2021/08/24 06:01:36;;;;;;;20.80;14.02;;;14.40;82.70;;;;;;5032392;28;20552;-90
2021/08/24 06:04:05;;;;;;;19.80;15.13;;;14.40;82.80;;;;;;5031835;28;20058;-90
2021/08/24 06:06:40;;;;;;;26.70;14.05;;;14.40;83.00;;;;;;5031544;28;20585;-90
2021/08/24 06:09:10;;;;;;;16.23;12.40;;;14.40;83.10;;;;;;5029203;28;20057;-92
2021/08/24 06:11:42;;;;;;;23.05;14.82;;;14.40;83.30;;;;;;5023810;28;20049;-89
2021/08/24 06:14:09;;;;;;;19.27;13.32;;;14.50;83.40;;;;;;5012439;28;20045;-89
2021/08/24 06:16:37;;;;;;;25.73;15.75;;;14.50;83.50;;;;;;5025821;28;20049;-88
2021/08/24 06:19:05;;;;;;;19.67;13.63;;;14.60;83.60;;;;;;5029355;28;20496;-88
2021/08/24 06:21:32;;;;;;;20.25;13.13;;;14.60;83.70;;;;;;5027473;28;20054;-88
2021/08/24 06:24:00;;;;;;;20.35;14.18;;;14.70;83.80;;;;;;5014771;28;20057;-88
2021/08/24 06:26:28;;;;;;;22.33;14.38;;;14.80;83.80;;;;;;5028044;28;20053;-85
2021/08/24 06:28:55;;;;;;;26.05;14.50;;;14.80;83.80;;;;;;5016085;28;20054;-88
2021/08/24 06:31:27;;;;;;;25.30;12.85;;;14.90;83.80;;;;;;5016609;28;20042;-90
2021/08/24 06:33:55;;;;;;;22.67;14.23;;;14.90;83.80;;;;;;5021945;28;20045;-87
2021/08/24 06:36:23;;;;;;;18.65;12.85;;;15.00;83.70;;;;;;5025555;28;20053;-87
2021/08/24 06:38:51;;;;;;;17.80;11.25;;;15.00;83.70;;;;;;5012139;28;20041;-90
2021/08/24 06:41:19;;;;;;;14.60;10.13;;;15.10;83.70;;;;;;5011710;28;20053;-91
2021/08/24 06:43:45;;;;;;;19.13;11.48;;;15.20;83.50;;;;;;5021025;28;20053;-91
2021/08/24 06:46:13;;;;;;;13.65;10.27;;;15.20;83.50;;;;;;5028355;28;20057;-91
2021/08/24 06:48:41;;;;;;;17.15;11.15;;;15.30;83.40;;;;;;5028361;28;20056;-91
2021/08/24 06:51:09;;;;;;;19.35;11.07;;;15.30;83.30;;;;;;5027685;28;20054;-90
2021/08/24 06:53:41;;;;;;;16.63;10.27;;;15.40;83.20;;;;;;5034481;28;20473;-93
2021/08/24 06:56:13;;;;;;;20.15;10.73;;;15.40;83.20;;;;;;5017245;28;20089;-89
2021/08/24 06:58:42;;;;;;;18.13;10.57;;;15.40;83.10;;;;;;5018178;28;20397;-90
2021/08/24 07:01:15;;;;;;;15.38;10.57;;;15.50;82.90;;;;;;5029820;28;20061;-88
2021/08/24 07:03:43;;;;;;;15.25;10.38;;;15.50;82.80;;;;;;5033244;28;20045;-91
2021/08/24 07:06:10;;;;;;;14.15;9.85;;;15.60;82.70;;;;;;5032723;28;20053;-91
2021/08/24 07:08:37;;;;;;;13.73;10.13;;;15.60;82.70;;;;;;5046468;28;20133;-90
2021/08/24 07:11:04;;;;;;;18.98;10.82;;;15.60;82.40;;;;;;5014488;28;20046;-90
2021/08/24 07:13:33;;;;;;;13.27;9.20;;;15.70;82.10;;;;;;5024754;28;20053;-94
2021/08/24 07:16:01;;;;;;;14.90;10.30;;;15.70;82.00;;;;;;5046817;28;20531;-93
2021/08/24 07:18:28;;;;;;;15.57;9.77;;;15.80;82.00;;;;;;5014833;28;20046;-93
2021/08/24 07:20:55;;;;;;;16.67;10.50;;;15.80;82.00;;;;;;5020921;28;20047;-90
2021/08/24 07:23:22;;;;;;;14.45;10.07;;;15.90;82.10;;;;;;5015446;28;20089;-92
2021/08/24 07:25:49;;;;;;;13.05;9.55;;;15.90;82.10;;;;;;5018557;28;20053;-91
2021/08/24 07:28:17;;;;;;;13.43;8.80;;;16.00;82.00;;;;;;5028108;28;20054;-90
2021/08/24 07:30:48;;;;;;;15.90;10.32;;;16.00;81.70;;;;;;5030372;28;20050;-92
2021/08/24 07:33:17;;;;;;;16.88;9.43;;;16.00;81.40;;;;;;5027888;28;20053;-93
2021/08/24 07:35:47;;;;;;;14.75;8.90;;;16.10;81.30;;;;;;5020863;28;20049;-91
2021/08/24 07:38:18;;;;;;;18.15;8.63;;;16.10;81.20;;;;;;5032595;28;20068;-90
2021/08/24 07:40:46;;;;;;;13.98;8.82;;;16.20;80.90;;;;;;5030497;28;20458;-93
2021/08/24 07:43:14;;;;;;;14.35;8.15;;;16.20;80.80;;;;;;5059062;28;20046;-93
2021/08/24 07:45:41;;;;;;;14.43;8.80;;;16.30;80.60;;;;;;5024953;28;20053;-90
2021/08/24 07:48:08;;;;;;;17.90;8.65;;;16.40;80.50;;;;;;5058814;28;20050;-92
2021/08/24 07:50:36;;;;;;;11.77;8.80;;;16.40;80.50;;;;;;5016299;28;20129;-92
2021/08/24 07:53:03;;;;;;;11.98;8.25;;;16.40;80.50;;;;;;5014837;28;20058;-93
2021/08/24 07:55:30;;;;;;;17.50;8.07;;;16.50;80.40;;;;;;5030501;28;20061;-94
2021/08/24 07:57:57;;;;;;;18.00;8.30;;;16.50;80.00;;;;;;5059281;28;20053;-89
2021/08/24 08:00:24;;;;;;;15.00;7.85;;;16.60;79.90;;;;;;5032633;28;20057;-94
2021/08/24 08:02:51;;;;;;;13.98;7.68;;;16.70;79.40;;;;;;5016945;28;20503;-93
2021/08/24 08:05:22;;;;;;;13.45;7.50;;;16.80;79.20;;;;;;5018539;28;20125;-92
2021/08/24 08:07:49;;;;;;;11.20;7.03;;;16.80;79.10;;;;;;5034816;28;20099;-93
2021/08/24 08:10:16;;;;;;;12.60;6.95;;;16.90;78.90;;;;;;5029663;28;20050;-92
2021/08/24 08:12:43;;;;;;;13.27;7.20;;;16.90;78.40;;;;;;5023746;28;20064;-94
2021/08/24 08:15:13;;;;;;;23.98;7.53;;;17.00;78.10;;;;;;5015032;28;20073;-94
2021/08/24 08:17:40;;;;;;;11.90;7.18;;;17.10;78.00;;;;;;5017146;28;20522;-92
2021/08/24 08:20:08;;;;;;;11.73;6.80;;;17.20;78.00;;;;;;5034669;28;20507;-93
2021/08/24 08:22:37;;;;;;;14.32;7.07;;;17.30;78.00;;;;;;5046620;28;20050;-91
2021/08/24 08:25:07;;;;;;;13.75;6.43;;;17.40;77.60;;;;;;5030595;28;20064;-92
2021/08/24 08:27:33;;;;;;;11.43;6.30;;;17.40;77.30;;;;;;5029285;28;20107;-90
2021/08/24 08:30:01;;;;;;;12.93;6.30;;;17.50;77.30;;;;;;5030231;28;20478;-92
2021/08/24 08:32:30;;;;;;;11.48;6.35;;;17.60;76.70;;;;;;5030540;28;20049;-95
2021/08/24 08:34:58;;;;;;;15.15;5.82;;;17.70;76.20;;;;;;5034954;28;20054;-94
2021/08/24 08:37:25;;;;;;;14.77;6.03;;;17.80;76.30;;;;;;5063716;28;20552;-91
2021/08/24 08:39:52;;;;;;;12.27;6.15;;;17.90;76.20;;;;;;5054695;28;20046;-90
2021/08/24 08:43:07;;;;;;;9.98;5.25;;;17.90;76.10;;;;;;5022104;28;20054;-91
2021/08/24 08:45:46;;;;;;;6.88;4.82;;;18.00;76.10;;;;;;4984442;28;20055;-93
2021/08/24 08:48:43;;;;;;;7.63;4.70;;;18.20;75.90;;;;;;4981090;28;20511;-94
2021/08/24 08:51:29;;;;;;;10.10;5.20;;;18.30;75.50;;;;;;4992488;28;20042;-93
2021/08/24 08:54:33;;;;;;;10.07;5.68;;;18.40;75.20;;;;;;4962879;28;20061;-92
2021/08/24 08:57:12;;;;;;;13.20;5.53;;;18.50;74.90;;;;;;4937485;29;20055;-91
2021/08/24 08:59:48;;;;;;;9.57;5.38;;;18.60;74.40;;;;;;4936386;29;20039;-91
2021/08/24 09:02:36;;;;;;;8.98;5.93;;;18.70;74.20;;;;;;4934875;29;20498;-95
2021/08/24 09:05:06;;;;;;;10.48;4.97;;;18.90;74.10;;;;;;4953606;29;20051;-92
2021/08/24 09:07:42;;;;;;;14.18;5.07;;;18.90;73.30;;;;;;4952746;28;20047;-91
2021/08/24 09:10:23;;;;;;;7.35;4.47;;;19.10;73.20;;;;;;4951548;28;20047;-91
2021/08/24 09:12:59;;;;;;;16.70;4.75;;;19.10;71.70;;;;;;4952241;28;20189;-90
2021/08/24 09:15:47;;;;;;;8.70;4.75;;;19.20;71.40;;;;;;4952449;28;20077;-88
2021/08/24 09:18:23;;;;;;;9.60;4.93;;;19.40;71.70;;;;;;4952548;28;20092;-90
2021/08/24 09:21:02;;;;;;;10.80;4.68;;;19.40;71.50;;;;;;4951805;28;20421;-93
2021/08/24 09:23:30;;;;;;;8.15;4.20;;;19.60;71.30;;;;;;5009112;28;20058;-89
2021/08/24 09:26:24;;;;;;;11.00;3.72;;;19.60;71.10;;;;;;4994914;28;20092;-89
2021/08/24 09:28:56;;;;;;;;;;;19.70;70.40;;;;;;5005505;28;20139;-90
2021/08/24 09:31:24;;;;;;;8.60;4.20;;;19.80;67.90;;;;;;4994923;28;19922;-93
2021/08/24 09:33:51;;;;;;;6.88;3.33;;;19.90;68.30;;;;;;5024471;28;20076;-93
2021/08/24 09:36:19;;;;;;;14.85;3.30;;;20.00;68.40;;;;;;5056333;28;20058;-87
2021/08/24 09:38:56;;;;;;;8.85;3.70;;;20.10;68.50;;;;;;5030607;28;20049;-88
2021/08/24 09:41:26;;;;;;;9.05;3.45;;;20.10;68.60;;;;;;5014002;28;20050;-91
2021/08/24 09:44:27;;;;;;;11.18;3.50;;;20.20;67.90;;;;;;5030580;28;20045;-89
2021/08/24 09:47:04;;;;;;;8.43;3.20;;;20.40;67.10;;;;;;5063459;28;20057;-90
2021/08/24 09:49:42;;;;;;;6.90;3.22;;;20.40;66.40;;;;;;5047768;28;20083;-91
2021/08/24 09:52:12;;;;;;;6.40;3.10;;;20.40;65.80;;;;;;5027503;28;20053;-87
2021/08/24 09:55:18;;;;;;;12.40;4.03;;;20.50;65.80;;;;;;5056447;28;20049;-94
2021/08/24 09:57:52;;;;;;;10.88;3.60;;;20.60;64.60;;;;;;5023663;28;20149;-90
2021/08/24 10:00:31;;;;;;;6.60;3.40;;;20.60;64.00;;;;;;5025487;28;20054;-88
2021/08/24 10:02:59;;;;;;;10.38;3.40;;;20.60;63.80;;;;;;4997757;28;20145;-87
2021/08/24 10:05:37;;;;;;;9.63;3.30;;;20.70;64.30;;;;;;5013753;28;20084;-88
2021/08/24 10:08:29;;;;;;;10.82;3.28;;;20.80;65.30;;;;;;5030653;28;20057;-89
2021/08/24 10:11:02;;;;;;;6.53;3.25;;;20.90;64.70;;;;;;5030621;28;20069;-92
2021/08/24 10:13:36;;;;;;;9.18;3.42;;;20.90;64.00;;;;;;5009340;28;20077;-90
2021/08/24 10:16:25;;;;;;;10.93;3.85;;;21.00;63.60;;;;;;5012328;28;20049;-87
2021/08/24 10:19:18;;;;;;;8.82;3.35;;;21.10;62.90;;;;;;5010410;28;20046;-87
2021/08/24 10:21:56;;;;;;;8.57;2.80;;;21.10;62.30;;;;;;5024677;28;20049;-88
2021/08/24 10:24:32;;;;;;;7.63;3.33;;;21.30;61.60;;;;;;5018263;28;20152;-89
2021/08/24 10:27:08;;;;;;;6.90;3.08;;;21.40;61.30;;;;;;5027083;28;20081;-88
2021/08/24 10:29:39;;;;;;;7.88;3.03;;;21.40;60.30;;;;;;5030412;28;20056;-92
2021/08/24 10:32:13;;;;;;;;;;;21.40;59.80;;;;;;5015940;28;20470;-87
2021/08/24 10:34:48;;;;;;;6.45;3.03;;;21.50;59.80;;;;;;5032384;28;19963;-89
2021/08/24 10:37:47;;;;;;;5.38;2.85;;;21.60;59.60;;;;;;5050829;28;20054;-89
2021/08/24 10:40:24;;;;;;;14.45;2.70;;;21.60;59.00;;;;;;4975889;28;20058;-91
2021/08/24 10:43:04;;;;;;;4.47;2.55;;;21.60;57.70;;;;;;4975416;28;20055;-91
2021/08/24 10:45:36;;;;;;;7.07;2.92;;;21.60;57.70;;;;;;5002638;28;20054;-90
2021/08/24 10:48:08;;;;;;;10.60;2.72;;;21.70;57.70;;;;;;4995021;28;20137;-92
2021/08/24 10:50:49;;;;;;;4.97;2.47;;;21.70;57.80;;;;;;4993861;28;20511;-88
2021/08/24 10:53:48;;;;;;;8.35;2.70;;;21.80;57.70;;;;;;4994789;28;20061;-88
2021/08/24 10:56:25;;;;;;;5.93;2.38;;;21.80;57.60;;;;;;4955273;29;20066;-89
2021/08/24 10:59:10;;;;;;;7.88;2.47;;;21.90;54.90;;;;;;4940183;29;20058;-89
2021/08/24 11:02:09;;;;;;;8.60;2.83;;;21.90;55.00;;;;;;4969942;28;20077;-91
2021/08/24 11:05:02;;;;;;;5.13;2.28;;;21.90;55.60;;;;;;4955124;28;20065;-91
2021/08/24 11:07:51;;;;;;;5.45;2.25;;;22.00;55.30;;;;;;4974749;28;20090;-92
2021/08/24 11:10:37;;;;;;;6.15;2.10;;;22.10;56.00;;;;;;4957140;28;20078;-89
2021/08/24 11:13:12;;;;;;;5.70;2.42;;;22.20;55.90;;;;;;4943298;29;20055;-89
2021/08/24 11:15:51;;;;;;;9.45;2.53;;;22.30;55.60;;;;;;4939087;29;20055;-88
2021/08/24 11:18:28;;;;;;;5.20;2.20;;;22.30;54.80;;;;;;4990546;28;20089;-88
2021/08/24 11:21:20;;;;;;;7.72;2.17;;;22.40;54.50;;;;;;4992964;28;20116;-90
2021/08/24 11:24:09;;;;;;;6.22;2.40;;;22.40;52.90;;;;;;4977831;28;20097;-91
2021/08/24 11:26:40;;;;;;;8.23;2.42;;;22.40;52.90;;;;;;4990934;28;20054;-90
2021/08/24 11:29:28;;;;;;;7.30;2.50;;;22.30;52.50;;;;;;4977833;28;20065;-89
2021/08/24 11:32:16;;;;;;;10.80;2.40;;;22.20;52.30;;;;;;4977302;28;20058;-89
2021/08/24 11:35:12;;;;;;;6.13;2.60;;;22.20;53.30;;;;;;5030452;28;20071;-90
2021/08/24 11:37:50;;;;;;;5.20;2.35;;;22.20;53.20;;;;;;5015403;28;20512;-88
2021/08/24 11:40:26;;;;;;;5.90;1.98;;;22.20;53.90;;;;;;5031994;28;20439;-92
2021/08/24 11:43:00;;;;;;;12.55;2.67;;;22.20;52.90;;;;;;5067260;28;20041;-92
2021/08/24 11:45:47;;;;;;;6.78;2.13;;;22.30;53.20;;;;;;5030427;28;20053;-90
2021/08/24 11:48:40;;;;;;;4.68;2.45;;;22.40;52.70;;;;;;5057679;28;20507;-88
2021/08/24 11:51:35;;;;;;;6.78;2.40;;;22.40;53.90;;;;;;5031087;28;20065;-90
2021/08/24 11:54:22;;;;;;;4.97;2.47;;;22.50;53.20;;;;;;5016866;28;20088;-88
2021/08/24 11:57:14;;;;;;;10.38;2.40;;;22.60;53.10;;;;;;5014722;28;20054;-94
2021/08/24 11:59:46;;;;;;;;;;;22.60;53.10;;;;;;5019774;28;20041;-90
2021/08/24 12:02:20;;;;;;;6.22;2.33;;;22.70;51.90;;;;;;5032721;28;19921;-90
2021/08/24 12:04:48;;;;;;;4.63;2.28;;;22.70;52.00;;;;;;5030903;28;20057;-92
2021/08/24 12:07:30;;;;;;;6.63;2.42;;;22.80;53.10;;;;;;5032275;28;20056;-89
2021/08/24 12:09:58;;;;;;;11.73;2.53;;;22.90;53.20;;;;;;5033786;28;20056;-94
2021/08/24 12:12:54;;;;;;;9.45;2.42;;;22.90;52.60;;;;;;5057757;28;20050;-94
2021/08/24 12:15:35;;;;;;;4.20;2.10;;;22.80;52.00;;;;;;5022464;28;20401;-94
2021/08/24 12:18:26;;;;;;;5.25;2.20;;;22.80;52.30;;;;;;5051583;28;20072;-95
2021/08/24 12:20:57;;;;;;;7.97;2.15;;;22.80;52.80;;;;;;5051780;28;20054;-90
2021/08/24 12:23:42;;;;;;;5.50;2.25;;;22.80;53.30;;;;;;5064705;28;20076;-92
2021/08/24 12:26:32;;;;;;;4.55;2.08;;;22.70;52.90;;;;;;5018022;28;20057;-95
2021/08/24 12:29:35;;;;;;;5.93;2.50;;;22.70;53.00;;;;;;5017430;28;20092;-91
2021/08/24 12:32:30;;;;;;;13.82;2.30;;;22.70;53.40;;;;;;5017240;28;20054;-91
2021/08/24 12:35:02;;;;;;;5.53;2.10;;;22.80;52.90;;;;;;4993339;28;20049;-90
2021/08/24 12:37:32;;;;;;;7.00;2.20;;;22.80;51.80;;;;;;4993729;28;20050;-92
2021/08/24 12:40:11;;;;;;;9.55;2.30;;;22.80;51.80;;;;;;4988250;28;20058;-92
2021/08/24 12:42:40;;;;;;;5.63;2.30;;;22.80;52.00;;;;;;4996658;28;20061;-94
2021/08/24 12:45:10;;;;;;;4.95;2.22;;;22.70;51.80;;;;;;4992692;28;20058;-94
2021/08/24 12:47:47;;;;;;;6.85;2.20;;;22.70;52.40;;;;;;4994211;28;20105;-93
2021/08/24 12:50:19;;;;;;;5.75;2.40;;;22.70;52.40;;;;;;4977739;28;20069;-93
2021/08/24 12:52:51;;;;;;;7.25;2.38;;;22.60;52.40;;;;;;5012949;28;20061;-92
2021/08/24 12:55:31;;;;;;;9.25;2.30;;;22.60;51.90;;;;;;5011609;28;20170;-91
2021/08/24 12:58:03;;;;;;;6.28;1.95;;;22.50;52.20;;;;;;4997227;28;20112;-92
2021/08/24 13:00:38;;;;;;;6.95;2.20;;;22.50;53.20;;;;;;4996689;28;20132;-95
2021/08/24 13:03:26;;;;;;;4.28;1.83;;;22.50;51.80;;;;;;5011849;28;20042;-91
2021/08/24 13:06:31;;;;;;;7.25;2.00;;;22.60;52.20;;;;;;4999604;28;20054;-91
2021/08/24 13:09:23;;;;;;;8.95;2.13;;;22.60;52.40;;;;;;5011629;28;20050;-94
2021/08/24 13:12:06;;;;;;;11.60;2.35;;;22.80;52.00;;;;;;5000112;28;20451;-89
2021/08/24 13:14:52;;;;;;;6.18;2.03;;;22.90;51.90;;;;;;5014917;28;20054;-90